sensor_id;sensor_type;location;lat;lon;timestamp;pressure;altitude;pressure_sealevel;temperature
61977;BMP280;45905;50.570;10.428;2023-11-18T00:00:06;98713.41;;;0.90
61977;BMP280;45905;50.570;10.428;2023-11-18T00:02:39;98715.09;;;0.90
61977;BMP280;45905;50.570;10.428;2023-11-18T00:05:10;98713.47;;;0.89
61977;BMP280;45905;50.570;10.428;2023-11-18T00:07:38;98710.28;;;0.87
61977;BMP280;45905;50.570;10.428;2023-11-18T00:10:06;98719.53;;;0.85
61977;BMP280;45905;50.570;10.428;2023-11-18T00:12:36;98726.19;;;0.84
61977;BMP280;45905;50.570;10.428;2023-11-18T00:15:04;98712.19;;;0.82
61977;BMP280;45905;50.570;10.428;2023-11-18T00:17:32;98714.69;;;0.82
61977;BMP280;45905;50.570;10.428;2023-11-18T00:20:00;98718.06;;;0.81
61977;BMP280;45905;50.570;10.428;2023-11-18T00:22:30;98722.47;;;0.76
61977;BMP280;45905;50.570;10.428;2023-11-18T00:24:57;98721.81;;;0.73
61977;BMP280;45905;50.570;10.428;2023-11-18T00:27:25;98722.75;;;0.70
61977;BMP280;45905;50.570;10.428;2023-11-18T00:29:53;98707.09;;;0.68
61977;BMP280;45905;50.570;10.428;2023-11-18T00:32:20;98715.47;;;0.67
61977;BMP280;45905;50.570;10.428;2023-11-18T00:34:48;98709.72;;;0.65
61977;BMP280;45905;50.570;10.428;2023-11-18T00:37:16;98710.63;;;0.64
61977;BMP280;45905;50.570;10.428;2023-11-18T00:39:44;98699.03;;;0.63
61977;BMP280;45905;50.570;10.428;2023-11-18T00:42:12;98709.06;;;0.62
61977;BMP280;45905;50.570;10.428;2023-11-18T00:44:39;98709.06;;;0.62
61977;BMP280;45905;50.570;10.428;2023-11-18T00:47:07;98720.72;;;0.61
61977;BMP280;45905;50.570;10.428;2023-11-18T00:49:35;98720.97;;;0.57
61977;BMP280;45905;50.570;10.428;2023-11-18T00:52:03;98726.09;;;0.54
61977;BMP280;45905;50.570;10.428;2023-11-18T00:54:31;98722.91;;;0.52
61977;BMP280;45905;50.570;10.428;2023-11-18T00:56:59;98730.53;;;0.49
61977;BMP280;45905;50.570;10.428;2023-11-18T00:59:26;98728.09;;;0.48
61977;BMP280;45905;50.570;10.428;2023-11-18T01:01:54;98732.34;;;0.46
61977;BMP280;45905;50.570;10.428;2023-11-18T01:04:22;98744.00;;;0.45
61977;BMP280;45905;50.570;10.428;2023-11-18T01:06:49;98742.47;;;0.43
61977;BMP280;45905;50.570;10.428;2023-11-18T01:09:18;98740.94;;;0.40
61977;BMP280;45905;50.570;10.428;2023-11-18T01:11:46;98747.59;;;0.40
61977;BMP280;45905;50.570;10.428;2023-11-18T01:14:34;98748.56;;;0.38
61977;BMP280;45905;50.570;10.428;2023-11-18T01:17:04;98743.75;;;0.35
61977;BMP280;45905;50.570;10.428;2023-11-18T01:19:33;98747.97;;;0.33
61977;BMP280;45905;50.570;10.428;2023-11-18T01:22:03;98751.28;;;0.33
61977;BMP280;45905;50.570;10.428;2023-11-18T01:24:33;98742.94;;;0.34
61977;BMP280;45905;50.570;10.428;2023-11-18T01:27:01;98742.13;;;0.34
61977;BMP280;45905;50.570;10.428;2023-11-18T01:29:29;98750.41;;;0.34
61977;BMP280;45905;50.570;10.428;2023-11-18T01:31:56;98743.75;;;0.35
61977;BMP280;45905;50.570;10.428;2023-11-18T01:34:24;98752.09;;;0.34
61977;BMP280;45905;50.570;10.428;2023-11-18T01:36:53;98752.97;;;0.33
61977;BMP280;45905;50.570;10.428;2023-11-18T01:39:20;98762.19;;;0.31
61977;BMP280;45905;50.570;10.428;2023-11-18T01:41:48;98754.94;;;0.26
61977;BMP280;45905;50.570;10.428;2023-11-18T01:44:16;98765.88;;;0.24
61977;BMP280;45905;50.570;10.428;2023-11-18T01:46:47;98755.97;;;0.22
61977;BMP280;45905;50.570;10.428;2023-11-18T01:49:15;98754.34;;;0.21
61977;BMP280;45905;50.570;10.428;2023-11-18T01:51:45;98757.66;;;0.22
61977;BMP280;45905;50.570;10.428;2023-11-18T01:54:15;98769.31;;;0.21
61977;BMP280;45905;50.570;10.428;2023-11-18T01:56:48;98761.03;;;0.21
61977;BMP280;45905;50.570;10.428;2023-11-18T01:59:16;98766.13;;;0.18
61977;BMP280;45905;50.570;10.428;2023-11-18T02:01:52;98772.75;;;0.19
61977;BMP280;45905;50.570;10.428;2023-11-18T02:04:21;98768.63;;;0.18
61977;BMP280;45905;50.570;10.428;2023-11-18T02:06:50;98762.78;;;0.19
61977;BMP280;45905;50.570;10.428;2023-11-18T02:09:19;98770.19;;;0.20
61977;BMP280;45905;50.570;10.428;2023-11-18T02:12:20;98769.59;;;0.16
61977;BMP280;45905;50.570;10.428;2023-11-18T02:14:50;98764.75;;;0.13
61977;BMP280;45905;50.570;10.428;2023-11-18T02:17:21;98763.22;;;0.10
61977;BMP280;45905;50.570;10.428;2023-11-18T02:19:53;98767.53;;;0.07
61977;BMP280;45905;50.570;10.428;2023-11-18T02:22:21;98772.09;;;-0.01
61977;BMP280;45905;50.570;10.428;2023-11-18T02:24:49;98781.16;;;0.00
61977;BMP280;45905;50.570;10.428;2023-11-18T02:27:17;98781.16;;;0.00
61977;BMP280;45905;50.570;10.428;2023-11-18T02:29:47;98775.28;;;0.01
61977;BMP280;45905;50.570;10.428;2023-11-18T02:32:32;98780.50;;;-0.03
61977;BMP280;45905;50.570;10.428;2023-11-18T02:35:24;98773.97;;;-0.06
61977;BMP280;45905;50.570;10.428;2023-11-18T02:37:54;98773.97;;;-0.06
61977;BMP280;45905;50.570;10.428;2023-11-18T02:40:35;98767.44;;;-0.08
61977;BMP280;45905;50.570;10.428;2023-11-18T02:43:05;98783.94;;;-0.06
61977;BMP280;45905;50.570;10.428;2023-11-18T02:45:35;98781.59;;;-0.09
61977;BMP280;45905;50.570;10.428;2023-11-18T02:48:06;98777.50;;;-0.10
61977;BMP280;45905;50.570;10.428;2023-11-18T02:50:35;98783.13;;;-0.06
61977;BMP280;45905;50.570;10.428;2023-11-18T02:53:07;98784.72;;;-0.05
61977;BMP280;45905;50.570;10.428;2023-11-18T02:55:36;98776.31;;;-0.03
61977;BMP280;45905;50.570;10.428;2023-11-18T02:58:04;98776.31;;;-0.03
61977;BMP280;45905;50.570;10.428;2023-11-18T03:00:34;98768.03;;;-0.03
61977;BMP280;45905;50.570;10.428;2023-11-18T03:03:01;98775.56;;;-0.05
61977;BMP280;45905;50.570;10.428;2023-11-18T03:05:30;98780.91;;;-0.12
61977;BMP280;45905;50.570;10.428;2023-11-18T03:07:58;98765.22;;;-0.14
61977;BMP280;45905;50.570;10.428;2023-11-18T03:10:25;98765.22;;;-0.14
61977;BMP280;45905;50.570;10.428;2023-11-18T03:12:53;98769.34;;;-0.13
61977;BMP280;45905;50.570;10.428;2023-11-18T03:15:22;98762.75;;;-0.14
61977;BMP280;45905;50.570;10.428;2023-11-18T03:17:51;98767.72;;;-0.14
61977;BMP280;45905;50.570;10.428;2023-11-18T03:20:22;98766.19;;;-0.17
61977;BMP280;45905;50.570;10.428;2023-11-18T03:22:51;98764.59;;;-0.18
61977;BMP280;45905;50.570;10.428;2023-11-18T03:25:20;98770.56;;;-0.21
61977;BMP280;45905;50.570;10.428;2023-11-18T03:27:51;98764.91;;;-0.25
61977;BMP280;45905;50.570;10.428;2023-11-18T03:30:21;98754.16;;;-0.25
61977;BMP280;45905;50.570;10.428;2023-11-18T03:32:49;98752.56;;;-0.26
61977;BMP280;45905;50.570;10.428;2023-11-18T03:35:16;98757.59;;;-0.28
61977;BMP280;45905;50.570;10.428;2023-11-18T03:37:44;98765.94;;;-0.29
61977;BMP280;45905;50.570;10.428;2023-11-18T03:40:14;98765.13;;;-0.29
61977;BMP280;45905;50.570;10.428;2023-11-18T03:42:42;98758.59;;;-0.32
61977;BMP280;45905;50.570;10.428;2023-11-18T03:45:10;98768.63;;;-0.33
61977;BMP280;45905;50.570;10.428;2023-11-18T03:47:38;98774.47;;;-0.34
61977;BMP280;45905;50.570;10.428;2023-11-18T03:50:06;98767.09;;;-0.36
61977;BMP280;45905;50.570;10.428;2023-11-18T03:52:38;98770.53;;;-0.38
61977;BMP280;45905;50.570;10.428;2023-11-18T03:55:06;98769.72;;;-0.38
61977;BMP280;45905;50.570;10.428;2023-11-18T03:57:34;98771.41;;;-0.39
61977;BMP280;45905;50.570;10.428;2023-11-18T04:00:01;98772.28;;;-0.40
61977;BMP280;45905;50.570;10.428;2023-11-18T04:02:36;98779.88;;;-0.43
61977;BMP280;45905;50.570;10.428;2023-11-18T04:05:04;98783.25;;;-0.44
61977;BMP280;45905;50.570;10.428;2023-11-18T04:07:31;98780.16;;;-0.49
61977;BMP280;45905;50.570;10.428;2023-11-18T04:09:59;98785.41;;;-0.55
61977;BMP280;45905;50.570;10.428;2023-11-18T04:12:27;98782.19;;;-0.57
61977;BMP280;45905;50.570;10.428;2023-11-18T04:14:54;98780.50;;;-0.56
61977;BMP280;45905;50.570;10.428;2023-11-18T04:17:22;98779.69;;;-0.57
61977;BMP280;45905;50.570;10.428;2023-11-18T04:19:49;98781.66;;;-0.63
61977;BMP280;45905;50.570;10.428;2023-11-18T04:22:17;98785.25;;;-0.70
61977;BMP280;45905;50.570;10.428;2023-11-18T04:24:46;98782.00;;;-0.70
61977;BMP280;45905;50.570;10.428;2023-11-18T04:27:13;98786.34;;;-0.75
61977;BMP280;45905;50.570;10.428;2023-11-18T04:29:40;98774.13;;;-0.79
61977;BMP280;45905;50.570;10.428;2023-11-18T04:32:08;98779.16;;;-0.81
61977;BMP280;45905;50.570;10.428;2023-11-18T04:34:36;98778.28;;;-0.80
61977;BMP280;45905;50.570;10.428;2023-11-18T04:37:05;98767.47;;;-0.79
61977;BMP280;45905;50.570;10.428;2023-11-18T04:39:33;98760.00;;;-0.79
61977;BMP280;45905;50.570;10.428;2023-11-18T04:42:01;98761.59;;;-0.78
61977;BMP280;45905;50.570;10.428;2023-11-18T04:44:28;98756.16;;;-0.86
61977;BMP280;45905;50.570;10.428;2023-11-18T04:46:58;98766.97;;;-0.87
61977;BMP280;45905;50.570;10.428;2023-11-18T04:49:27;98770.22;;;-0.85
61977;BMP280;45905;50.570;10.428;2023-11-18T04:51:54;98767.47;;;-0.79
61977;BMP280;45905;50.570;10.428;2023-11-18T04:54:21;98779.00;;;-0.78
61977;BMP280;45905;50.570;10.428;2023-11-18T04:56:49;98771.47;;;-0.77
61977;BMP280;45905;50.570;10.428;2023-11-18T04:59:16;98769.00;;;-0.77
61977;BMP280;45905;50.570;10.428;2023-11-18T05:01:45;98766.78;;;-0.82
61977;BMP280;45905;50.570;10.428;2023-11-18T05:04:13;98774.13;;;-0.79
61977;BMP280;45905;50.570;10.428;2023-11-18T05:06:40;98780.69;;;-0.78
61977;BMP280;45905;50.570;10.428;2023-11-18T05:09:08;98779.91;;;-0.79
61977;BMP280;45905;50.570;10.428;2023-11-18T05:11:36;98779.09;;;-0.79
61977;BMP280;45905;50.570;10.428;2023-11-18T05:14:03;98772.50;;;-0.80
61977;BMP280;45905;50.570;10.428;2023-11-18T05:16:31;98777.53;;;-0.82
61977;BMP280;45905;50.570;10.428;2023-11-18T05:18:58;98769.34;;;-0.84
61977;BMP280;45905;50.570;10.428;2023-11-18T05:21:26;98778.47;;;-0.84
61977;BMP280;45905;50.570;10.428;2023-11-18T05:23:53;98765.91;;;-0.81
61977;BMP280;45905;50.570;10.428;2023-11-18T05:26:21;98772.69;;;-0.85
61977;BMP280;45905;50.570;10.428;2023-11-18T05:28:48;98771.94;;;-0.87
61977;BMP280;45905;50.570;10.428;2023-11-18T05:31:17;98774.53;;;-0.88
61977;BMP280;45905;50.570;10.428;2023-11-18T05:33:45;98772.03;;;-0.88
61977;BMP280;45905;50.570;10.428;2023-11-18T05:36:19;98767.88;;;-0.88
61977;BMP280;45905;50.570;10.428;2023-11-18T05:38:54;98771.22;;;-0.89
61977;BMP280;45905;50.570;10.428;2023-11-18T05:41:22;98773.78;;;-0.90
61977;BMP280;45905;50.570;10.428;2023-11-18T05:43:55;98762.28;;;-0.93
61977;BMP280;45905;50.570;10.428;2023-11-18T05:46:25;98763.16;;;-0.94
61977;BMP280;45905;50.570;10.428;2023-11-18T05:48:59;98767.38;;;-0.96
61977;BMP280;45905;50.570;10.428;2023-11-18T05:51:28;98776.66;;;-0.99
61977;BMP280;45905;50.570;10.428;2023-11-18T05:53:56;98772.50;;;-0.98
61977;BMP280;45905;50.570;10.428;2023-11-18T05:56:24;98767.53;;;-0.98
61977;BMP280;45905;50.570;10.428;2023-11-18T05:58:52;98765.84;;;-0.98
61977;BMP280;45905;50.570;10.428;2023-11-18T06:01:21;98757.56;;;-0.98
61977;BMP280;45905;50.570;10.428;2023-11-18T06:03:49;98775.84;;;-0.99
61977;BMP280;45905;50.570;10.428;2023-11-18T06:06:18;98780.94;;;-1.02
61977;BMP280;45905;50.570;10.428;2023-11-18T06:08:50;98781.88;;;-1.05
61977;BMP280;45905;50.570;10.428;2023-11-18T06:11:19;98774.50;;;-1.06
61977;BMP280;45905;50.570;10.428;2023-11-18T06:13:49;98770.59;;;-1.12
61977;BMP280;45905;50.570;10.428;2023-11-18T06:16:20;98782.16;;;-1.11
61977;BMP280;45905;50.570;10.428;2023-11-18T06:18:51;98781.34;;;-1.11
61977;BMP280;45905;50.570;10.428;2023-11-18T06:21:21;98783.88;;;-1.13
61977;BMP280;45905;50.570;10.428;2023-11-18T06:23:52;98782.25;;;-1.14
61977;BMP280;45905;50.570;10.428;2023-11-18T06:26:23;98780.72;;;-1.16
61977;BMP280;45905;50.570;10.428;2023-11-18T06:28:55;98782.41;;;-1.16
61977;BMP280;45905;50.570;10.428;2023-11-18T06:31:23;98781.53;;;-1.15
61977;BMP280;45905;50.570;10.428;2023-11-18T06:33:51;98793.28;;;-1.19
61977;BMP280;45905;50.570;10.428;2023-11-18T06:36:20;98798.91;;;-1.33
61977;BMP280;45905;50.570;10.428;2023-11-18T06:38:50;98795.53;;;-1.33
61977;BMP280;45905;50.570;10.428;2023-11-18T06:41:21;98788.97;;;-1.33
61977;BMP280;45905;50.570;10.428;2023-11-18T06:44:00;98796.41;;;-1.33
61977;BMP280;45905;50.570;10.428;2023-11-18T06:46:36;98798.03;;;-1.33
61977;BMP280;45905;50.570;10.428;2023-11-18T06:49:08;98806.97;;;-1.29
61977;BMP280;45905;50.570;10.428;2023-11-18T06:51:38;98820.25;;;-1.30
61977;BMP280;45905;50.570;10.428;2023-11-18T06:54:06;98818.63;;;-1.31
61977;BMP280;45905;50.570;10.428;2023-11-18T06:56:40;98817.81;;;-1.31
61977;BMP280;45905;50.570;10.428;2023-11-18T06:59:13;98817.22;;;-1.36
61977;BMP280;45905;50.570;10.428;2023-11-18T07:01:43;98808.03;;;-1.34
61977;BMP280;45905;50.570;10.428;2023-11-18T07:04:13;98818.63;;;-1.31
61977;BMP280;45905;50.570;10.428;2023-11-18T07:06:42;98798.03;;;-1.33
61977;BMP280;45905;50.570;10.428;2023-11-18T07:09:11;98794.69;;;-1.32
61977;BMP280;45905;50.570;10.428;2023-11-18T07:11:48;98804.53;;;-1.30
61977;BMP280;45905;50.570;10.428;2023-11-18T07:14:16;98795.44;;;-1.31
61977;BMP280;45905;50.570;10.428;2023-11-18T07:16:44;98803.88;;;-1.33
61977;BMP280;45905;50.570;10.428;2023-11-18T07:19:12;98796.41;;;-1.33
61977;BMP280;45905;50.570;10.428;2023-11-18T07:21:49;98798.16;;;-1.35
61977;BMP280;45905;50.570;10.428;2023-11-18T07:24:18;98811.50;;;-1.38
61977;BMP280;45905;50.570;10.428;2023-11-18T07:26:48;98819.31;;;-1.47
61977;BMP280;45905;50.570;10.428;2023-11-18T07:29:16;98830.72;;;-1.41
61977;BMP280;45905;50.570;10.428;2023-11-18T07:31:44;98828.91;;;-1.38
61977;BMP280;45905;50.570;10.428;2023-11-18T07:34:13;98845.31;;;-1.34
61977;BMP280;45905;50.570;10.428;2023-11-18T07:36:40;98836.94;;;-1.32
61977;BMP280;45905;50.570;10.428;2023-11-18T07:39:08;98829.59;;;-1.34
61977;BMP280;45905;50.570;10.428;2023-11-18T07:41:43;98842.28;;;-1.40
61977;BMP280;45905;50.570;10.428;2023-11-18T07:44:11;98840.50;;;-1.38
61977;BMP280;45905;50.570;10.428;2023-11-18T07:46:40;98839.53;;;-1.34
61977;BMP280;45905;50.570;10.428;2023-11-18T07:49:10;98843.38;;;-1.28
61977;BMP280;45905;50.570;10.428;2023-11-18T07:51:39;98852.34;;;-1.24
61977;BMP280;45905;50.570;10.428;2023-11-18T07:54:07;98855.63;;;-1.23
61977;BMP280;45905;50.570;10.428;2023-11-18T07:56:37;98847.97;;;-1.19
61977;BMP280;45905;50.570;10.428;2023-11-18T07:59:05;98850.34;;;-1.16
61977;BMP280;45905;50.570;10.428;2023-11-18T08:01:35;98833.53;;;-1.11
61977;BMP280;45905;50.570;10.428;2023-11-18T08:04:03;98834.03;;;-1.03
61977;BMP280;45905;50.570;10.428;2023-11-18T08:06:34;98823.84;;;-0.97
61977;BMP280;45905;50.570;10.428;2023-11-18T08:09:01;98824.56;;;-0.96
61977;BMP280;45905;50.570;10.428;2023-11-18T08:11:30;98835.28;;;-0.94
61977;BMP280;45905;50.570;10.428;2023-11-18T08:13:57;98845.91;;;-0.90
61977;BMP280;45905;50.570;10.428;2023-11-18T08:16:25;98851.41;;;-0.84
61977;BMP280;45905;50.570;10.428;2023-11-18T08:18:53;98841.13;;;-0.77
61977;BMP280;45905;50.570;10.428;2023-11-18T08:21:21;98831.00;;;-0.72
61977;BMP280;45905;50.570;10.428;2023-11-18T08:23:49;98829.13;;;-0.67
61977;BMP280;45905;50.570;10.428;2023-11-18T08:26:18;98820.66;;;-0.63
61977;BMP280;45905;50.570;10.428;2023-11-18T08:28:46;98828.59;;;-0.56
61977;BMP280;45905;50.570;10.428;2023-11-18T08:31:14;98824.84;;;-0.46
61977;BMP280;45905;50.570;10.428;2023-11-18T08:33:43;98836.13;;;-0.39
61977;BMP280;45905;50.570;10.428;2023-11-18T08:36:11;98846.63;;;-0.33
61977;BMP280;45905;50.570;10.428;2023-11-18T08:38:39;98837.41;;;-0.31
61977;BMP280;45905;50.570;10.428;2023-11-18T08:41:07;98848.03;;;-0.27
61977;BMP280;45905;50.570;10.428;2023-11-18T08:43:36;98845.41;;;-0.24
61977;BMP280;45905;50.570;10.428;2023-11-18T08:46:04;98837.00;;;-0.22
61977;BMP280;45905;50.570;10.428;2023-11-18T08:48:32;98830.03;;;-0.16
61977;BMP280;45905;50.570;10.428;2023-11-18T08:51:01;98831.25;;;-0.06
61977;BMP280;45905;50.570;10.428;2023-11-18T08:53:28;98829.22;;;0.02
61977;BMP280;45905;50.570;10.428;2023-11-18T08:55:56;98823.97;;;0.08
61977;BMP280;45905;50.570;10.428;2023-11-18T08:58:24;98827.03;;;0.13
61977;BMP280;45905;50.570;10.428;2023-11-18T09:01:01;98830.03;;;0.19
61977;BMP280;45905;50.570;10.428;2023-11-18T09:03:34;98824.88;;;0.23
61977;BMP280;45905;50.570;10.428;2023-11-18T09:06:06;98827.28;;;0.25
61977;BMP280;45905;50.570;10.428;2023-11-18T09:08:47;98818.94;;;0.26
61977;BMP280;45905;50.570;10.428;2023-11-18T09:11:24;98812.97;;;0.28
61977;BMP280;45905;50.570;10.428;2023-11-18T09:13:56;98800.38;;;0.31
61977;BMP280;45905;50.570;10.428;2023-11-18T09:16:28;98797.16;;;0.29
61977;BMP280;45905;50.570;10.428;2023-11-18T09:18:58;98803.75;;;0.30
61977;BMP280;45905;50.570;10.428;2023-11-18T09:21:30;98805.44;;;0.30
61977;BMP280;45905;50.570;10.428;2023-11-18T09:24:03;98815.34;;;0.31
61977;BMP280;45905;50.570;10.428;2023-11-18T09:26:35;98804.50;;;0.32
61977;BMP280;45905;50.570;10.428;2023-11-18T09:29:02;98805.25;;;0.34
61977;BMP280;45905;50.570;10.428;2023-11-18T09:31:30;98814.22;;;0.37
61977;BMP280;45905;50.570;10.428;2023-11-18T09:34:01;98819.66;;;0.44
61977;BMP280;45905;50.570;10.428;2023-11-18T09:36:28;98822.88;;;0.46
61977;BMP280;45905;50.570;10.428;2023-11-18T09:38:56;98836.91;;;0.49
61977;BMP280;45905;50.570;10.428;2023-11-18T09:41:24;98838.34;;;0.53
61977;BMP280;45905;50.570;10.428;2023-11-18T09:43:55;98840.63;;;0.57
61977;BMP280;45905;50.570;10.428;2023-11-18T09:46:26;98841.44;;;0.57
61977;BMP280;45905;50.570;10.428;2023-11-18T09:49:26;98834.72;;;0.59
61977;BMP280;45905;50.570;10.428;2023-11-18T09:52:04;98830.16;;;0.67
61977;BMP280;45905;50.570;10.428;2023-11-18T09:57:38;98821.13;;;0.81
61977;BMP280;45905;50.570;10.428;2023-11-18T10:00:08;98817.59;;;0.85
61977;BMP280;45905;50.570;10.428;2023-11-18T10:02:49;98822.34;;;0.90
61977;BMP280;45905;50.570;10.428;2023-11-18T10:05:20;98822.94;;;0.95
61977;BMP280;45905;50.570;10.428;2023-11-18T10:07:50;98820.22;;;0.99
61977;BMP280;45905;50.570;10.428;2023-11-18T10:10:19;98807.53;;;1.03
61977;BMP280;45905;50.570;10.428;2023-11-18T10:12:50;98813.06;;;1.08
61977;BMP280;45905;50.570;10.428;2023-11-18T10:15:25;98808.75;;;1.12
61977;BMP280;45905;50.570;10.428;2023-11-18T10:17:54;98817.53;;;1.18
61977;BMP280;45905;50.570;10.428;2023-11-18T10:20:46;98812.88;;;1.28
61977;BMP280;45905;50.570;10.428;2023-11-18T10:23:15;98814.16;;;1.34
61977;BMP280;45905;50.570;10.428;2023-11-18T10:25:58;98810.25;;;1.46
61977;BMP280;45905;50.570;10.428;2023-11-18T10:28:26;98810.59;;;1.55
61977;BMP280;45905;50.570;10.428;2023-11-18T10:31:04;98807.59;;;1.64
61977;BMP280;45905;50.570;10.428;2023-11-18T10:33:38;98804.63;;;1.72
61977;BMP280;45905;50.570;10.428;2023-11-18T10:36:21;98816.44;;;1.84
61977;BMP280;45905;50.570;10.428;2023-11-18T10:38:52;98812.56;;;1.94
61977;BMP280;45905;50.570;10.428;2023-11-18T10:41:23;98802.19;;;2.01
61977;BMP280;45905;50.570;10.428;2023-11-18T10:44:06;98793.41;;;2.09
61977;BMP280;45905;50.570;10.428;2023-11-18T10:46:35;98790.47;;;2.17
61977;BMP280;45905;50.570;10.428;2023-11-18T10:49:03;98790.84;;;2.25
61977;BMP280;45905;50.570;10.428;2023-11-18T10:51:37;98782.03;;;2.33
61977;BMP280;45905;50.570;10.428;2023-11-18T10:54:06;98771.53;;;2.42
61977;BMP280;45905;50.570;10.428;2023-11-18T10:56:50;98767.63;;;2.51
61977;BMP280;45905;50.570;10.428;2023-11-18T10:59:17;98772.84;;;2.62
61977;BMP280;45905;50.570;10.428;2023-11-18T11:01:46;98769.81;;;2.71
61977;BMP280;45905;50.570;10.428;2023-11-18T11:04:17;98774.28;;;2.80
61977;BMP280;45905;50.570;10.428;2023-11-18T11:06:49;98777.16;;;2.87
61977;BMP280;45905;50.570;10.428;2023-11-18T11:09:21;98766.59;;;2.96
61977;BMP280;45905;50.570;10.428;2023-11-18T11:11:57;98765.34;;;3.03
61977;BMP280;45905;50.570;10.428;2023-11-18T11:14:43;98765.69;;;3.11
61977;BMP280;45905;50.570;10.428;2023-11-18T11:17:19;98762.75;;;3.18
61977;BMP280;45905;50.570;10.428;2023-11-18T11:20:06;98757.09;;;3.28
61977;BMP280;45905;50.570;10.428;2023-11-18T11:28:55;98744.13;;;3.49
61977;BMP280;45905;50.570;10.428;2023-11-18T11:31:38;98738.09;;;3.52
61977;BMP280;45905;50.570;10.428;2023-11-18T11:34:16;98721.19;;;3.55
61977;BMP280;45905;50.570;10.428;2023-11-18T11:36:48;98716.19;;;3.55
61977;BMP280;45905;50.570;10.428;2023-11-18T11:39:19;98722.16;;;3.53
61977;BMP280;45905;50.570;10.428;2023-11-18T11:41:54;98721.84;;;3.45
61977;BMP280;45905;50.570;10.428;2023-11-18T11:44:26;98712.78;;;3.42
61977;BMP280;45905;50.570;10.428;2023-11-18T11:46:59;98717.91;;;3.41
61977;BMP280;45905;50.570;10.428;2023-11-18T11:49:43;98717.00;;;3.42
61977;BMP280;45905;50.570;10.428;2023-11-18T11:52:27;98718.63;;;3.43
61977;BMP280;45905;50.570;10.428;2023-11-18T11:55:10;98717.63;;;3.45
61977;BMP280;45905;50.570;10.428;2023-11-18T11:57:40;98706.81;;;3.45
61977;BMP280;45905;50.570;10.428;2023-11-18T12:00:10;98689.28;;;3.45
61977;BMP280;45905;50.570;10.428;2023-11-18T12:02:52;98684.25;;;3.45
61977;BMP280;45905;50.570;10.428;2023-11-18T12:05:26;98675.03;;;3.45
61977;BMP280;45905;50.570;10.428;2023-11-18T12:07:55;98658.94;;;3.49
61977;BMP280;45905;50.570;10.428;2023-11-18T12:10:32;98647.66;;;3.56
61977;BMP280;45905;50.570;10.428;2023-11-18T12:13:11;98642.31;;;3.61
61977;BMP280;45905;50.570;10.428;2023-11-18T12:15:54;98629.44;;;3.66
61977;BMP280;45905;50.570;10.428;2023-11-18T12:18:25;98629.13;;;3.71
61977;BMP280;45905;50.570;10.428;2023-11-18T12:20:53;98637.38;;;3.73
61977;BMP280;45905;50.570;10.428;2023-11-18T12:23:24;98654.81;;;3.74
61977;BMP280;45905;50.570;10.428;2023-11-18T12:25:54;98661.22;;;3.78
61977;BMP280;45905;50.570;10.428;2023-11-18T12:28:30;98661.03;;;3.81
61977;BMP280;45905;50.570;10.428;2023-11-18T12:31:04;98662.47;;;3.85
61977;BMP280;45905;50.570;10.428;2023-11-18T12:37:26;98650.13;;;3.94
61977;BMP280;45905;50.570;10.428;2023-11-18T12:40:54;98631.91;;;3.92
61977;BMP280;45905;50.570;10.428;2023-11-18T12:43:48;98630.19;;;3.93
61977;BMP280;45905;50.570;10.428;2023-11-18T12:46:51;98618.75;;;3.89
61977;BMP280;45905;50.570;10.428;2023-11-18T12:49:24;98629.47;;;3.91
61977;BMP280;45905;50.570;10.428;2023-11-18T12:51:54;98614.44;;;3.91
61977;BMP280;45905;50.570;10.428;2023-11-18T12:54:27;98616.84;;;3.92
61977;BMP280;45905;50.570;10.428;2023-11-18T12:56:55;98621.56;;;3.97
61977;BMP280;45905;50.570;10.428;2023-11-18T12:59:23;98610.44;;;4.00
61977;BMP280;45905;50.570;10.428;2023-11-18T13:01:52;98624.38;;;4.04
61977;BMP280;45905;50.570;10.428;2023-11-18T13:04:25;98625.00;;;4.08
61977;BMP280;45905;50.570;10.428;2023-11-18T13:06:55;98630.63;;;4.11
61977;BMP280;45905;50.570;10.428;2023-11-18T13:09:22;98630.31;;;4.16
61977;BMP280;45905;50.570;10.428;2023-11-18T13:11:58;98629.09;;;4.21
61977;BMP280;45905;50.570;10.428;2023-11-18T13:14:32;98621.38;;;4.24
61977;BMP280;45905;50.570;10.428;2023-11-18T13:17:14;98620.41;;;4.26
61977;BMP280;45905;50.570;10.428;2023-11-18T13:19:45;98636.16;;;4.28
61977;BMP280;45905;50.570;10.428;2023-11-18T13:22:15;98622.59;;;4.31
61977;BMP280;45905;50.570;10.428;2023-11-18T13:24:46;98625.81;;;4.33
61977;BMP280;45905;50.570;10.428;2023-11-18T13:27:16;98628.31;;;4.33
61977;BMP280;45905;50.570;10.428;2023-11-18T13:29:50;98612.34;;;4.34
61977;BMP280;45905;50.570;10.428;2023-11-18T13:32:19;98604.94;;;4.32
61977;BMP280;45905;50.570;10.428;2023-11-18T13:34:51;98607.34;;;4.34
61977;BMP280;45905;50.570;10.428;2023-11-18T13:37:19;98599.72;;;4.35
61977;BMP280;45905;50.570;10.428;2023-11-18T13:39:57;98591.19;;;4.38
61977;BMP280;45905;50.570;10.428;2023-11-18T13:42:27;98588.69;;;4.38
61977;BMP280;45905;50.570;10.428;2023-11-18T13:45:13;98586.88;;;4.39
61977;BMP280;45905;50.570;10.428;2023-11-18T13:48:02;98576.16;;;4.38
61977;BMP280;45905;50.570;10.428;2023-11-18T13:50:30;98576.94;;;4.38
61977;BMP280;45905;50.570;10.428;2023-11-18T13:52:57;98566.78;;;4.39
61977;BMP280;45905;50.570;10.428;2023-11-18T13:55:25;98568.41;;;4.40
61977;BMP280;45905;50.570;10.428;2023-11-18T13:57:56;98565.91;;;4.40
61977;BMP280;45905;50.570;10.428;2023-11-18T14:00:26;98564.19;;;4.41
61977;BMP280;45905;50.570;10.428;2023-11-18T14:02:58;98574.94;;;4.43
61977;BMP280;45905;50.570;10.428;2023-11-18T14:05:33;98573.22;;;4.43
61977;BMP280;45905;50.570;10.428;2023-11-18T14:08:01;98578.34;;;4.42
61977;BMP280;45905;50.570;10.428;2023-11-18T14:10:37;98557.00;;;4.37
61977;BMP280;45905;50.570;10.428;2023-11-18T14:13:08;98548.94;;;4.32
61977;BMP280;45905;50.570;10.428;2023-11-18T14:15:44;98545.53;;;4.33
61977;BMP280;45905;50.570;10.428;2023-11-18T14:18:12;98537.13;;;4.34
61977;BMP280;45905;50.570;10.428;2023-11-18T14:20:41;98531.91;;;4.37
61977;BMP280;45905;50.570;10.428;2023-11-18T14:23:09;98521.88;;;4.37
61977;BMP280;45905;50.570;10.428;2023-11-18T14:25:37;98518.47;;;4.38
61977;BMP280;45905;50.570;10.428;2023-11-18T14:28:05;98510.00;;;4.38
61977;BMP280;45905;50.570;10.428;2023-11-18T14:30:36;98505.00;;;4.38
61977;BMP280;45905;50.570;10.428;2023-11-18T14:33:03;98499.97;;;4.38
61977;BMP280;45905;50.570;10.428;2023-11-18T14:35:31;98493.38;;;4.38
61977;BMP280;45905;50.570;10.428;2023-11-18T14:37:59;98485.16;;;4.36